Time;durP1;ratioP1;P1;durP2;ratioP2;P2;SDS_P1;SDS_P2;PMS_P1;PMS_P2;Temp;Humidity;BMP_temperature;BMP_pressure;BME280_temperature;BME280_humidity;BME280_pressure;Samples;Min_cycle;Max_cycle;Signal;HPM_P1;HPM_P2
2024/01/12 00:02:16;;;;;;;3.58;1.73;;;;;;;;;;5035993;28;20425;-73
2024/01/12 00:04:42;;;;;;;4.40;2.30;;;;;;;;;;5035581;28;20566;-72
2024/01/12 00:07:09;;;;;;;3.58;2.00;;;;;;;;;;5037209;28;20064;-73
2024/01/12 00:09:35;;;;;;;3.55;1.73;;;;;;;;;;5035353;28;20047;-74
2024/01/12 00:12:01;;;;;;;7.53;2.10;;;;;;;;;;5018603;28;20057;-73
2024/01/12 00:14:27;;;;;;;6.90;1.73;;;;;;;;;;5037668;28;20252;-72
2024/01/12 00:16:53;;;;;;;3.35;1.83;;;;;;;;;;5035836;28;20511;-72
2024/01/12 00:19:20;;;;;;;5.45;2.10;;;;;;;;;;5035621;28;20138;-72
2024/01/12 00:21:46;;;;;;;3.90;1.65;;;;;;;;;;5037421;28;20131;-71
2024/01/12 00:24:12;;;;;;;2.72;1.70;;;;;;;;;;5035394;28;20477;-72
2024/01/12 00:26:39;;;;;;;5.38;2.25;;;;;;;;;;5034708;28;20231;-72
2024/01/12 00:29:05;;;;;;;4.50;1.95;;;;;;;;;;5037540;28;20040;-73
2024/01/12 00:31:31;;;;;;;2.88;1.98;;;;;;;;;;5037949;28;20122;-72
2024/01/12 00:33:57;;;;;;;3.90;1.88;;;;;;;;;;5036847;28;20049;-72
2024/01/12 00:36:23;;;;;;;4.20;2.60;;;;;;;;;;5051556;28;20084;-71
2024/01/12 00:38:49;;;;;;;3.97;1.67;;;;;;;;;;5035666;28;20074;-73
2024/01/12 00:41:16;;;;;;;4.82;1.85;;;;;;;;;;5036194;28;20094;-72
2024/01/12 00:43:42;;;;;;;3.75;1.85;;;;;;;;;;5036002;28;20122;-72
2024/01/12 00:46:08;;;;;;;3.10;1.65;;;;;;;;;;5036155;28;20044;-72
2024/01/12 00:48:34;;;;;;;3.20;1.67;;;;;;;;;;5035605;28;20182;-73
2024/01/12 00:51:00;;;;;;;3.38;1.70;;;;;;;;;;5035449;28;20307;-71
2024/01/12 00:53:26;;;;;;;3.03;1.77;;;;;;;;;;5036091;28;20177;-72
2024/01/12 00:55:53;;;;;;;2.85;1.23;;;;;;;;;;5035487;28;20045;-72
2024/01/12 00:58:19;;;;;;;6.50;1.70;;;;;;;;;;5034646;28;20298;-72
2024/01/12 01:00:45;;;;;;;3.40;1.80;;;;;;;;;;5036284;28;20116;-73
2024/01/12 01:03:11;;;;;;;4.40;1.65;;;;;;;;;;5034486;28;20049;-72
2024/01/12 01:05:37;;;;;;;5.47;2.15;;;;;;;;;;5037082;28;20113;-72
2024/01/12 01:08:03;;;;;;;5.00;2.22;;;;;;;;;;5036630;28;20629;-71
2024/01/12 01:10:30;;;;;;;4.53;2.33;;;;;;;;;;5018127;28;20296;-72
2024/01/12 01:12:56;;;;;;;6.95;2.08;;;;;;;;;;5035288;28;20052;-72
2024/01/12 01:15:22;;;;;;;4.85;1.92;;;;;;;;;;5036251;28;20089;-73
2024/01/12 01:17:48;;;;;;;5.07;2.13;;;;;;;;;;5035426;28;20516;-72
2024/01/12 01:20:16;;;;;;;3.72;2.13;;;;;;;;;;5036797;28;20044;-73
2024/01/12 01:22:42;;;;;;;4.03;1.85;;;;;;;;;;5051685;28;20295;-73
2024/01/12 01:25:08;;;;;;;3.00;1.55;;;;;;;;;;5035257;28;20501;-72
2024/01/12 01:27:34;;;;;;;3.50;2.15;;;;;;;;;;5035718;28;20405;-72
2024/01/12 01:30:00;;;;;;;3.05;1.75;;;;;;;;;;5038882;28;20037;-73
2024/01/12 01:32:26;;;;;;;2.50;1.75;;;;;;;;;;5036850;28;20045;-74
2024/01/12 01:34:52;;;;;;;3.58;1.88;;;;;;;;;;5035947;28;20409;-73
2024/01/12 01:37:18;;;;;;;5.32;2.28;;;;;;;;;;5036778;28;20164;-73
2024/01/12 01:39:46;;;;;;;3.38;1.65;;;;;;;;;;5035264;28;20366;-73
2024/01/12 01:42:12;;;;;;;4.07;1.75;;;;;;;;;;5035785;28;20504;-73
2024/01/12 01:44:38;;;;;;;3.90;1.80;;;;;;;;;;5035660;28;20132;-72
2024/01/12 01:47:04;;;;;;;4.28;1.70;;;;;;;;;;5035144;28;20215;-73
2024/01/12 01:49:31;;;;;;;2.50;1.70;;;;;;;;;;5052500;28;20044;-73
2024/01/12 01:51:57;;;;;;;3.63;2.08;;;;;;;;;;5040057;28;20040;-73
2024/01/12 01:54:23;;;;;;;4.82;2.47;;;;;;;;;;5038992;28;20112;-72
2024/01/12 01:56:49;;;;;;;4.70;2.20;;;;;;;;;;5037783;28;20037;-72
2024/01/12 01:59:16;;;;;;;5.15;1.90;;;;;;;;;;5040252;28;20414;-71
2024/01/12 02:01:42;;;;;;;5.03;1.98;;;;;;;;;;5039411;28;20105;-72
2024/01/12 02:04:08;;;;;;;6.50;1.98;;;;;;;;;;5039191;28;20036;-74
2024/01/12 02:06:35;;;;;;;3.75;1.50;;;;;;;;;;5040253;28;20037;-73
2024/01/12 02:09:03;;;;;;;3.90;1.52;;;;;;;;;;5039040;28;20042;-72
2024/01/12 02:11:30;;;;;;;4.68;1.70;;;;;;;;;;5039065;28;20087;-72
2024/01/12 02:13:56;;;;;;;3.33;2.72;;;;;;;;;;5039884;28;20243;-73
2024/01/12 02:16:22;;;;;;;5.00;1.38;;;;;;;;;;5040369;28;20144;-74
2024/01/12 02:18:48;;;;;;;6.25;1.75;;;;;;;;;;5038061;28;20040;-72
2024/01/12 02:21:14;;;;;;;2.78;1.67;;;;;;;;;;5021984;28;20555;-72
2024/01/12 02:23:41;;;;;;;4.28;2.63;;;;;;;;;;5037702;28;20051;-72
2024/01/12 02:26:07;;;;;;;3.05;1.70;;;;;;;;;;5022118;28;20416;-71
2024/01/12 02:28:33;;;;;;;3.10;1.95;;;;;;;;;;5037708;28;20145;-73
2024/01/12 02:31:00;;;;;;;4.93;1.80;;;;;;;;;;5037676;28;20048;-73
2024/01/12 02:33:26;;;;;;;5.30;2.10;;;;;;;;;;5035722;28;20244;-73
2024/01/12 02:35:52;;;;;;;3.53;1.88;;;;;;;;;;5036000;28;20076;-73
2024/01/12 02:38:18;;;;;;;4.90;2.05;;;;;;;;;;5036077;28;20140;-72
2024/01/12 02:40:47;;;;;;;3.42;1.50;;;;;;;;;;5036052;28;20245;-73
2024/01/12 02:43:13;;;;;;;2.58;1.58;;;;;;;;;;5036641;28;20125;-73
2024/01/12 02:45:39;;;;;;;4.32;2.05;;;;;;;;;;5038631;28;20198;-72
2024/01/12 02:48:06;;;;;;;2.65;1.48;;;;;;;;;;5053205;28;20511;-74
2024/01/12 02:50:32;;;;;;;4.45;1.95;;;;;;;;;;5038109;28;20209;-72
2024/01/12 02:52:58;;;;;;;4.90;1.80;;;;;;;;;;5036026;28;20253;-73
2024/01/12 02:55:24;;;;;;;4.43;2.35;;;;;;;;;;5052903;28;20044;-73
2024/01/12 02:57:50;;;;;;;2.28;1.60;;;;;;;;;;5036844;28;20116;-73
2024/01/12 03:00:16;;;;;;;3.78;1.80;;;;;;;;;;5036167;28;20158;-73
2024/01/12 03:02:42;;;;;;;3.40;1.67;;;;;;;;;;5038712;28;20052;-73
2024/01/12 03:05:09;;;;;;;6.22;1.80;;;;;;;;;;5035544;28;20563;-73
2024/01/12 03:07:35;;;;;;;3.03;1.58;;;;;;;;;;5034906;28;20072;-74
2024/01/12 03:10:01;;;;;;;6.68;1.85;;;;;;;;;;5030898;28;20281;-73
2024/01/12 03:12:27;;;;;;;2.10;1.42;;;;;;;;;;5037349;28;20056;-73
2024/01/12 03:14:53;;;;;;;4.47;1.50;;;;;;;;;;5038281;28;20082;-74
2024/01/12 03:17:20;;;;;;;3.67;1.70;;;;;;;;;;5036065;28;20294;-74
2024/01/12 03:19:46;;;;;;;2.70;1.88;;;;;;;;;;5035833;28;20052;-73
2024/01/12 03:22:12;;;;;;;2.72;1.70;;;;;;;;;;5035385;28;20246;-73
2024/01/12 03:24:38;;;;;;;3.33;1.50;;;;;;;;;;5036578;28;20228;-73
2024/01/12 03:27:05;;;;;;;3.15;1.50;;;;;;;;;;5037556;28;20079;-73
2024/01/12 03:29:31;;;;;;;2.30;1.70;;;;;;;;;;5051976;28;20344;-73
2024/01/12 03:31:57;;;;;;;4.22;1.90;;;;;;;;;;5037128;28;20390;-72
2024/01/12 03:34:23;;;;;;;4.03;2.25;;;;;;;;;;5036663;28;20458;-73
2024/01/12 03:36:49;;;;;;;5.78;2.15;;;;;;;;;;5036683;28;20063;-72
2024/01/12 03:39:15;;;;;;;2.25;1.45;;;;;;;;;;5034666;28;20231;-74
2024/01/12 03:41:41;;;;;;;2.63;1.50;;;;;;;;;;5051739;28;20159;-72
2024/01/12 03:44:08;;;;;;;5.22;1.50;;;;;;;;;;5035960;28;20040;-72
2024/01/12 03:46:34;;;;;;;4.25;1.80;;;;;;;;;;5052271;28;20106;-72
2024/01/12 03:49:00;;;;;;;2.42;1.40;;;;;;;;;;5035919;28;20048;-73
2024/01/12 03:51:26;;;;;;;2.80;1.58;;;;;;;;;;5018798;28;20040;-72
2024/01/12 03:53:52;;;;;;;6.10;1.45;;;;;;;;;;5036179;28;20087;-73
2024/01/12 03:56:18;;;;;;;3.05;1.60;;;;;;;;;;5037661;28;20120;-73
2024/01/12 03:58:44;;;;;;;2.90;1.42;;;;;;;;;;5038228;28;20029;-72
2024/01/12 04:01:10;;;;;;;3.20;1.83;;;;;;;;;;5037570;28;20881;-72
2024/01/12 04:03:37;;;;;;;4.10;2.15;;;;;;;;;;5035435;28;20481;-72
2024/01/12 04:06:08;;;;;;;2.47;1.42;;;;;;;;;;5036747;28;20205;-72
2024/01/12 04:08:34;;;;;;;2.58;1.60;;;;;;;;;;5036181;28;20067;-73
2024/01/12 04:11:00;;;;;;;2.33;1.70;;;;;;;;;;5037639;28;20131;-72
2024/01/12 04:13:26;;;;;;;2.45;1.58;;;;;;;;;;5052147;28;20642;-73
2024/01/12 04:15:53;;;;;;;5.07;1.60;;;;;;;;;;5036796;28;20045;-74
2024/01/12 04:18:20;;;;;;;5.85;2.45;;;;;;;;;;5036482;28;20416;-72
2024/01/12 04:20:46;;;;;;;3.50;1.30;;;;;;;;;;5036458;28;20079;-73
2024/01/12 04:23:12;;;;;;;2.58;1.50;;;;;;;;;;5035298;28;20542;-73
2024/01/12 04:25:38;;;;;;;3.80;1.35;;;;;;;;;;5034903;28;21045;-73
2024/01/12 04:28:05;;;;;;;3.88;1.55;;;;;;;;;;5052228;28;20227;-73
2024/01/12 04:30:31;;;;;;;4.13;1.83;;;;;;;;;;5035971;28;20584;-72
2024/01/12 04:32:57;;;;;;;2.80;1.33;;;;;;;;;;5035763;28;20164;-72
2024/01/12 04:35:23;;;;;;;4.15;1.60;;;;;;;;;;5019908;28;20549;-73
2024/01/12 04:37:49;;;;;;;3.13;1.60;;;;;;;;;;5035676;28;20100;-72
2024/01/12 04:40:15;;;;;;;4.15;1.65;;;;;;;;;;5052457;28;21016;-72
2024/01/12 04:42:41;;;;;;;7.07;1.80;;;;;;;;;;5036458;28;20043;-73
2024/01/12 04:45:07;;;;;;;5.78;1.38;;;;;;;;;;5039727;28;20106;-73
2024/01/12 04:47:33;;;;;;;5.88;1.60;;;;;;;;;;5022435;28;20312;-72
2024/01/12 04:50:00;;;;;;;4.05;1.58;;;;;;;;;;5038539;28;20183;-73
2024/01/12 04:52:26;;;;;;;4.15;1.88;;;;;;;;;;5034523;28;20133;-71
2024/01/12 04:54:52;;;;;;;4.20;1.58;;;;;;;;;;5034228;28;20480;-72
2024/01/12 04:57:18;;;;;;;3.72;1.40;;;;;;;;;;5036241;28;20314;-73
2024/01/12 04:59:44;;;;;;;6.65;1.60;;;;;;;;;;5036013;28;20702;-73
2024/01/12 05:02:11;;;;;;;5.18;1.25;;;;;;;;;;5019070;28;20049;-73
2024/01/12 05:04:37;;;;;;;2.60;1.38;;;;;;;;;;5036688;28;20307;-72
2024/01/12 05:07:03;;;;;;;4.50;1.77;;;;;;;;;;5036724;28;20036;-73
2024/01/12 05:09:30;;;;;;;2.10;1.50;;;;;;;;;;5037146;28;20528;-72
2024/01/12 05:11:59;;;;;;;3.50;1.33;;;;;;;;;;5033470;28;20044;-73
2024/01/12 05:14:25;;;;;;;2.90;1.23;;;;;;;;;;5032710;28;20040;-73
2024/01/12 05:16:51;;;;;;;6.78;1.90;;;;;;;;;;5034039;28;20314;-73
2024/01/12 05:19:17;;;;;;;4.88;1.77;;;;;;;;;;5034138;28;20047;-73
2024/01/12 05:21:43;;;;;;;1.85;1.02;;;;;;;;;;5033136;28;20036;-73
2024/01/12 05:24:09;;;;;;;5.18;1.60;;;;;;;;;;5029892;28;20310;-72
2024/01/12 05:26:36;;;;;;;5.45;1.60;;;;;;;;;;5033575;28;20500;-72
2024/01/12 05:29:02;;;;;;;3.88;1.73;;;;;;;;;;5033120;28;20047;-72
2024/01/12 05:31:28;;;;;;;2.65;1.20;;;;;;;;;;5032012;28;20320;-73
2024/01/12 05:33:54;;;;;;;2.85;1.48;;;;;;;;;;5032398;28;20162;-72
2024/01/12 05:36:22;;;;;;;2.15;1.08;;;;;;;;;;5034047;28;20144;-73
2024/01/12 05:38:48;;;;;;;2.58;1.63;;;;;;;;;;5032693;28;20089;-74
2024/01/12 05:41:14;;;;;;;3.88;1.55;;;;;;;;;;5033414;28;20036;-74
2024/01/12 05:43:40;;;;;;;4.35;1.95;;;;;;;;;;5034246;28;20131;-73
2024/01/12 05:46:07;;;;;;;2.33;1.20;;;;;;;;;;5048688;28;20129;-73
2024/01/12 05:48:34;;;;;;;5.85;1.60;;;;;;;;;;5034007;28;20037;-73
2024/01/12 05:51:00;;;;;;;2.03;1.40;;;;;;;;;;5034325;28;20396;-74
2024/01/12 05:53:26;;;;;;;2.08;1.17;;;;;;;;;;5033188;28;20102;-73
2024/01/12 05:55:53;;;;;;;3.00;1.40;;;;;;;;;;5032855;28;20044;-72
2024/01/12 05:58:19;;;;;;;2.08;1.40;;;;;;;;;;5034538;28;20135;-72
2024/01/12 06:00:47;;;;;;;2.25;1.35;;;;;;;;;;5034584;28;20439;-73
2024/01/12 06:03:14;;;;;;;3.67;1.55;;;;;;;;;;5034144;28;20037;-73
2024/01/12 06:05:45;;;;;;;4.75;1.50;;;;;;;;;;5026697;28;20045;-73
2024/01/12 06:08:11;;;;;;;1.55;1.05;;;;;;;;;;5032754;28;20052;-73
2024/01/12 06:10:37;;;;;;;5.63;1.30;;;;;;;;;;5033845;28;20056;-73
2024/01/12 06:13:04;;;;;;;7.43;1.90;;;;;;;;;;5032793;28;20037;-73
2024/01/12 06:15:30;;;;;;;2.00;1.35;;;;;;;;;;5033043;28;20076;-73
2024/01/12 06:17:58;;;;;;;3.28;1.48;;;;;;;;;;5014746;28;20516;-73
2024/01/12 06:20:25;;;;;;;5.10;1.58;;;;;;;;;;5033586;28;20048;-73
2024/01/12 06:22:51;;;;;;;1.95;1.08;;;;;;;;;;5028467;28;20875;-72
2024/01/12 06:25:17;;;;;;;3.08;1.55;;;;;;;;;;5031279;28;20183;-72
2024/01/12 06:27:43;;;;;;;3.00;1.20;;;;;;;;;;5033658;28;20229;-73
2024/01/12 06:30:10;;;;;;;2.55;1.20;;;;;;;;;;5031799;28;20127;-73
2024/01/12 06:32:39;;;;;;;2.45;1.10;;;;;;;;;;5032013;28;20072;-73
2024/01/12 06:35:08;;;;;;;3.67;1.40;;;;;;;;;;5033819;28;20112;-73
2024/01/12 06:37:35;;;;;;;2.72;1.27;;;;;;;;;;5034748;28;20506;-73
2024/01/12 06:40:01;;;;;;;3.25;1.75;;;;;;;;;;5035643;28;20082;-72
2024/01/12 06:42:30;;;;;;;2.80;1.20;;;;;;;;;;5035806;28;20594;-73
2024/01/12 06:44:56;;;;;;;4.97;2.47;;;;;;;;;;5037303;28;20055;-72
2024/01/12 06:47:26;;;;;;;3.60;1.25;;;;;;;;;;5037729;28;20167;-73
2024/01/12 06:49:52;;;;;;;4.32;1.67;;;;;;;;;;5017862;28;20279;-73
2024/01/12 06:52:18;;;;;;;2.42;1.25;;;;;;;;;;5035210;28;20532;-73
2024/01/12 06:54:44;;;;;;;2.47;1.20;;;;;;;;;;5032727;28;20072;-72
2024/01/12 06:57:11;;;;;;;7.38;1.83;;;;;;;;;;5032968;28;20211;-73
2024/01/12 06:59:37;;;;;;;2.40;1.20;;;;;;;;;;5035231;28;20523;-72
2024/01/12 07:02:03;;;;;;;3.92;1.30;;;;;;;;;;5034993;28;20036;-72
2024/01/12 07:04:29;;;;;;;3.75;1.70;;;;;;;;;;5034862;28;20204;-73
2024/01/12 07:06:56;;;;;;;6.75;1.88;;;;;;;;;;5035456;28;20091;-73
2024/01/12 07:09:22;;;;;;;2.90;1.52;;;;;;;;;;5034015;28;20496;-72
2024/01/12 07:11:48;;;;;;;4.90;1.92;;;;;;;;;;5035137;28;20052;-73
2024/01/12 07:14:15;;;;;;;3.38;1.33;;;;;;;;;;5034377;28;20056;-73
2024/01/12 07:16:41;;;;;;;2.47;1.45;;;;;;;;;;5034730;28;20060;-73
2024/01/12 07:19:08;;;;;;;3.55;1.65;;;;;;;;;;5050735;28;20048;-74
2024/01/12 07:21:34;;;;;;;4.00;1.70;;;;;;;;;;5036429;28;20047;-71
2024/01/12 07:24:01;;;;;;;4.60;1.88;;;;;;;;;;5032067;28;20727;-72
2024/01/12 07:26:27;;;;;;;2.83;1.65;;;;;;;;;;5036278;28;20547;-72
2024/01/12 07:28:53;;;;;;;5.93;1.73;;;;;;;;;;5036092;28;20070;-72
2024/01/12 07:31:19;;;;;;;4.80;2.03;;;;;;;;;;5036320;28;20037;-71
2024/01/12 07:33:45;;;;;;;4.13;1.70;;;;;;;;;;5036099;28;20051;-73
2024/01/12 07:36:11;;;;;;;9.77;2.50;;;;;;;;;;5036233;28;20532;-73
2024/01/12 07:38:37;;;;;;;3.60;1.88;;;;;;;;;;5032847;28;20270;-73
2024/01/12 07:41:03;;;;;;;5.72;1.88;;;;;;;;;;5032343;28;20041;-72
2024/01/12 07:43:33;;;;;;;4.97;2.25;;;;;;;;;;5035187;28;20078;-72
2024/01/12 07:45:59;;;;;;;4.25;1.65;;;;;;;;;;5045191;28;20040;-72
2024/01/12 07:48:25;;;;;;;6.10;2.03;;;;;;;;;;5047412;28;20121;-72
2024/01/12 07:50:51;;;;;;;2.75;1.50;;;;;;;;;;5034678;28;20135;-72
2024/01/12 07:53:18;;;;;;;9.55;2.72;;;;;;;;;;5015918;28;20187;-73
2024/01/12 07:55:44;;;;;;;2.80;1.48;;;;;;;;;;5032801;28;20052;-74
2024/01/12 07:58:11;;;;;;;4.10;1.63;;;;;;;;;;5035010;28;20523;-71
2024/01/12 08:00:37;;;;;;;5.72;1.58;;;;;;;;;;5033142;28;20485;-73
2024/01/12 08:03:03;;;;;;;2.75;1.60;;;;;;;;;;5036711;28;20862;-73
2024/01/12 08:05:29;;;;;;;6.75;1.45;;;;;;;;;;5036433;28;20084;-72
2024/01/12 08:07:56;;;;;;;5.68;1.90;;;;;;;;;;5034138;28;20047;-73
2024/01/12 08:10:22;;;;;;;6.93;1.42;;;;;;;;;;5033912;28;20055;-73
2024/01/12 08:12:49;;;;;;;4.95;2.65;;;;;;;;;;5049082;28;20057;-73
2024/01/12 08:15:15;;;;;;;4.75;1.60;;;;;;;;;;5026456;28;20301;-73
2024/01/12 08:17:42;;;;;;;4.13;2.60;;;;;;;;;;5032925;28;20822;-72
2024/01/12 08:20:08;;;;;;;4.55;1.63;;;;;;;;;;5034221;28;20198;-72
2024/01/12 08:22:34;;;;;;;9.00;1.60;;;;;;;;;;5032113;28;20032;-72
2024/01/12 08:25:01;;;;;;;5.05;2.08;;;;;;;;;;5031091;28;20041;-72
2024/01/12 08:27:27;;;;;;;5.10;1.90;;;;;;;;;;5047794;28;20231;-71
2024/01/12 08:29:53;;;;;;;10.90;2.03;;;;;;;;;;5015200;28;20041;-72
2024/01/12 08:32:19;;;;;;;3.38;1.55;;;;;;;;;;5014165;28;20508;-72
2024/01/12 08:34:47;;;;;;;6.38;1.85;;;;;;;;;;5033750;28;20655;-73
2024/01/12 08:37:13;;;;;;;7.88;1.60;;;;;;;;;;5032317;28;20171;-71
2024/01/12 08:39:39;;;;;;;3.78;2.45;;;;;;;;;;5030489;28;20087;-72
2024/01/12 08:42:06;;;;;;;5.20;1.60;;;;;;;;;;5030740;28;20228;-72
2024/01/12 08:44:32;;;;;;;4.20;1.80;;;;;;;;;;5034259;28;20237;-72
2024/01/12 08:46:58;;;;;;;4.22;1.25;;;;;;;;;;5032210;28;20055;-73
2024/01/12 08:49:24;;;;;;;3.90;1.52;;;;;;;;;;5034555;28;20222;-72
2024/01/12 08:51:51;;;;;;;4.57;2.08;;;;;;;;;;5048227;28;20373;-73
2024/01/12 08:54:17;;;;;;;4.32;1.60;;;;;;;;;;5031740;28;20052;-73
2024/01/12 08:56:43;;;;;;;3.33;1.67;;;;;;;;;;5033954;28;20213;-73
2024/01/12 08:59:09;;;;;;;4.45;1.75;;;;;;;;;;5032017;28;20037;-74
2024/01/12 09:01:36;;;;;;;3.60;1.35;;;;;;;;;;5030012;28;21059;-72
2024/01/12 09:04:02;;;;;;;6.25;1.95;;;;;;;;;;5032836;28;20049;-72
2024/01/12 09:06:28;;;;;;;2.70;2.15;;;;;;;;;;5033466;28;20495;-72
2024/01/12 09:08:55;;;;;;;6.40;2.65;;;;;;;;;;5032724;28;20167;-73
2024/01/12 09:11:21;;;;;;;5.03;1.65;;;;;;;;;;5031998;28;20041;-73
2024/01/12 09:13:48;;;;;;;5.55;1.80;;;;;;;;;;5032509;28;20096;-72
2024/01/12 09:16:14;;;;;;;3.30;1.73;;;;;;;;;;5031316;28;20052;-72
2024/01/12 09:18:43;;;;;;;4.05;2.03;;;;;;;;;;5047040;28;20090;-73
2024/01/12 09:21:09;;;;;;;3.45;1.30;;;;;;;;;;5014891;28;20590;-72
2024/01/12 09:23:35;;;;;;;4.15;1.48;;;;;;;;;;5033304;28;20084;-74
2024/01/12 09:26:01;;;;;;;7.13;2.80;;;;;;;;;;5029948;28;20589;-72
2024/01/12 09:28:27;;;;;;;2.92;1.60;;;;;;;;;;5030458;28;20052;-72
2024/01/12 09:30:54;;;;;;;5.05;1.95;;;;;;;;;;5030974;28;20648;-72
2024/01/12 09:33:20;;;;;;;2.58;1.27;;;;;;;;;;5033068;28;20159;-73
2024/01/12 09:35:46;;;;;;;4.50;1.70;;;;;;;;;;5031513;28;20129;-73
2024/01/12 09:38:12;;;;;;;5.53;1.73;;;;;;;;;;5031148;28;20093;-72
2024/01/12 09:40:38;;;;;;;8.10;1.65;;;;;;;;;;5030234;28;20059;-72
2024/01/12 09:43:09;;;;;;;4.75;1.80;;;;;;;;;;5032838;28;20037;-72
2024/01/12 09:45:37;;;;;;;2.75;1.38;;;;;;;;;;5031587;28;20064;-71
2024/01/12 09:48:03;;;;;;;3.78;1.55;;;;;;;;;;5033442;28;20591;-72
2024/01/12 09:50:30;;;;;;;4.93;1.70;;;;;;;;;;5032444;28;20174;-72
2024/01/12 09:52:56;;;;;;;3.42;1.83;;;;;;;;;;5013148;28;20327;-71
2024/01/12 09:55:22;;;;;;;4.88;2.15;;;;;;;;;;5031118;28;20818;-73
2024/01/12 09:57:48;;;;;;;6.05;1.73;;;;;;;;;;5033559;28;20045;-72
2024/01/12 10:00:14;;;;;;;4.53;1.77;;;;;;;;;;5033078;28;20068;-73
2024/01/12 10:02:41;;;;;;;4.78;1.80;;;;;;;;;;5032923;28;20151;-72
2024/01/12 10:05:07;;;;;;;7.40;2.00;;;;;;;;;;5033335;28;20131;-72
2024/01/12 10:07:33;;;;;;;4.63;1.67;;;;;;;;;;5033030;28;20085;-72
2024/01/12 10:10:00;;;;;;;2.63;1.48;;;;;;;;;;5013766;28;20049;-72
2024/01/12 10:12:26;;;;;;;3.30;1.50;;;;;;;;;;5036713;28;20192;-72
2024/01/12 10:15:02;;;;;;;3.80;1.52;;;;;;;;;;5034433;28;20056;-72
2024/01/12 10:17:30;;;;;;;4.63;1.70;;;;;;;;;;5036179;28;20040;-71
2024/01/12 10:19:56;;;;;;;8.18;3.33;;;;;;;;;;5036171;28;20105;-72
2024/01/12 10:22:24;;;;;;;4.18;1.52;;;;;;;;;;5036571;28;20163;-72
2024/01/12 10:25:00;;;;;;;4.32;1.52;;;;;;;;;;5049000;28;20550;-72
2024/01/12 10:27:26;;;;;;;3.70;1.88;;;;;;;;;;5034351;28;20052;-71
2024/01/12 10:29:52;;;;;;;4.93;2.03;;;;;;;;;;5035209;28;20141;-71
2024/01/12 10:32:21;;;;;;;6.68;2.92;;;;;;;;;;5052727;28;20072;-73
2024/01/12 10:34:48;;;;;;;10.35;2.42;;;;;;;;;;5037951;28;20397;-73
2024/01/12 10:37:18;;;;;;;7.13;3.20;;;;;;;;;;5037422;28;20040;-73
2024/01/12 10:39:45;;;;;;;7.78;3.25;;;;;;;;;;5036089;28;20427;-72
2024/01/12 10:42:12;;;;;;;8.18;3.85;;;;;;;;;;5037736;28;20127;-73
2024/01/12 10:44:42;;;;;;;8.13;4.22;;;;;;;;;;5035377;28;20059;-74
2024/01/12 10:47:15;;;;;;;7.40;3.85;;;;;;;;;;5038184;28;20187;-73
2024/01/12 10:49:49;;;;;;;7.70;3.55;;;;;;;;;;5035077;28;20072;-73
2024/01/12 10:52:26;;;;;;;8.32;4.47;;;;;;;;;;5036725;28;20484;-72
2024/01/12 10:55:06;;;;;;;8.95;4.45;;;;;;;;;;5035523;28;20816;-73
2024/01/12 10:57:32;;;;;;;11.20;3.50;;;;;;;;;;5037052;28;20076;-73
2024/01/12 10:59:59;;;;;;;6.40;3.10;;;;;;;;;;5034462;28;20052;-73
2024/01/12 11:02:25;;;;;;;14.55;3.88;;;;;;;;;;5037649;28;20159;-73
2024/01/12 11:04:52;;;;;;;10.20;3.75;;;;;;;;;;5035736;28;20151;-73
2024/01/12 11:07:18;;;;;;;10.30;3.38;;;;;;;;;;5037861;28;20208;-72
2024/01/12 11:09:45;;;;;;;8.02;2.97;;;;;;;;;;5029191;28;20185;-73
2024/01/12 11:12:13;;;;;;;12.07;4.03;;;;;;;;;;5035377;28;20048;-73
2024/01/12 11:14:40;;;;;;;6.82;3.35;;;;;;;;;;5037496;28;20332;-73
2024/01/12 11:17:06;;;;;;;7.90;3.63;;;;;;;;;;5037718;28;20271;-72
2024/01/12 11:19:33;;;;;;;6.32;3.08;;;;;;;;;;5019889;28;20241;-73
2024/01/12 11:22:03;;;;;;;6.85;3.50;;;;;;;;;;5032598;28;20589;-72
2024/01/12 11:24:30;;;;;;;9.43;4.18;;;;;;;;;;5032175;28;20056;-73
2024/01/12 11:27:02;;;;;;;7.60;3.17;;;;;;;;;;5036092;28;20552;-72
2024/01/12 11:29:29;;;;;;;9.35;3.40;;;;;;;;;;5036929;28;20044;-72
2024/01/12 11:32:00;;;;;;;5.05;3.25;;;;;;;;;;5035871;28;20136;-73
2024/01/12 11:34:30;;;;;;;4.88;2.58;;;;;;;;;;5034499;28;20065;-73
2024/01/12 11:36:58;;;;;;;7.32;3.50;;;;;;;;;;5032626;28;20048;-73
2024/01/12 11:39:24;;;;;;;8.55;3.17;;;;;;;;;;5034583;28;20588;-73
2024/01/12 11:41:52;;;;;;;8.07;3.17;;;;;;;;;;5017346;28;20691;-73
2024/01/12 11:44:18;;;;;;;6.95;3.25;;;;;;;;;;5035531;28;20044;-73
2024/01/12 11:46:44;;;;;;;5.90;3.60;;;;;;;;;;5017182;28;20037;-73
2024/01/12 11:49:11;;;;;;;5.72;2.70;;;;;;;;;;5035923;28;20083;-73
2024/01/12 11:51:37;;;;;;;7.30;2.88;;;;;;;;;;5017012;28;20041;-74
2024/01/12 11:54:03;;;;;;;10.02;4.05;;;;;;;;;;5017591;28;20080;-72
2024/01/12 11:56:30;;;;;;;10.18;3.28;;;;;;;;;;5034381;28;20124;-72
2024/01/12 11:58:56;;;;;;;5.97;2.88;;;;;;;;;;5017055;28;20098;-71
2024/01/12 12:01:24;;;;;;;7.85;3.15;;;;;;;;;;5033395;28;20218;-72
2024/01/12 12:03:50;;;;;;;7.80;3.17;;;;;;;;;;5018080;28;20421;-74
2024/01/12 12:06:17;;;;;;;5.60;2.38;;;;;;;;;;5016831;28;20056;-73
2024/01/12 12:08:43;;;;;;;5.93;3.15;;;;;;;;;;5033292;28;20124;-73
2024/01/12 12:11:12;;;;;;;10.43;3.20;;;;;;;;;;5032337;28;20052;-73
2024/01/12 12:13:38;;;;;;;7.13;2.90;;;;;;;;;;5034757;28;20123;-72
2024/01/12 12:16:05;;;;;;;11.77;3.67;;;;;;;;;;5034475;28;20433;-73
2024/01/12 12:18:31;;;;;;;8.07;2.80;;;;;;;;;;5032986;28;20060;-73
2024/01/12 12:20:57;;;;;;;12.40;3.55;;;;;;;;;;5032275;28;20593;-73
2024/01/12 12:23:25;;;;;;;11.80;3.45;;;;;;;;;;5033385;28;20246;-72
2024/01/12 12:25:51;;;;;;;8.30;2.85;;;;;;;;;;5034151;28;20060;-72
2024/01/12 12:28:17;;;;;;;10.63;3.72;;;;;;;;;;5035002;28;20043;-72
2024/01/12 12:30:46;;;;;;;7.97;2.88;;;;;;;;;;5034822;28;20159;-73
2024/01/12 12:33:12;;;;;;;11.13;3.28;;;;;;;;;;5035354;28;20037;-73
2024/01/12 12:35:39;;;;;;;7.10;3.08;;;;;;;;;;5033709;28;20155;-73
2024/01/12 12:38:05;;;;;;;6.68;2.45;;;;;;;;;;5035012;28;20045;-74
2024/01/12 12:40:32;;;;;;;8.90;3.72;;;;;;;;;;5034763;28;20041;-72
2024/01/12 12:42:58;;;;;;;6.18;2.85;;;;;;;;;;5017400;28;20043;-72
2024/01/12 12:45:25;;;;;;;12.90;3.97;;;;;;;;;;5016052;28;20597;-73
2024/01/12 12:47:51;;;;;;;8.98;3.33;;;;;;;;;;5035351;28;20737;-73
2024/01/12 12:50:18;;;;;;;6.63;3.15;;;;;;;;;;5031041;28;20062;-74
2024/01/12 12:52:44;;;;;;;6.38;2.92;;;;;;;;;;5031633;28;20642;-74
2024/01/12 12:55:11;;;;;;;9.27;2.72;;;;;;;;;;5032352;28;20048;-73
2024/01/12 12:57:37;;;;;;;7.70;2.60;;;;;;;;;;5031343;28;20294;-72
2024/01/12 13:00:05;;;;;;;6.20;3.33;;;;;;;;;;5033127;28;20226;-72
2024/01/12 13:02:31;;;;;;;9.52;2.72;;;;;;;;;;5032309;28;20435;-73
2024/01/12 13:04:58;;;;;;;6.68;2.88;;;;;;;;;;5031728;28;20132;-72
2024/01/12 13:07:24;;;;;;;7.53;3.13;;;;;;;;;;5016048;28;20184;-73
2024/01/12 13:09:52;;;;;;;6.88;2.50;;;;;;;;;;5032584;28;20044;-73
2024/01/12 13:12:18;;;;;;;9.23;3.28;;;;;;;;;;5015275;28;20577;-72
2024/01/12 13:14:45;;;;;;;5.45;2.67;;;;;;;;;;5016615;28;20061;-73
2024/01/12 13:17:11;;;;;;;7.57;3.65;;;;;;;;;;5034341;28;20058;-73
2024/01/12 13:19:37;;;;;;;8.85;3.28;;;;;;;;;;5029513;28;20484;-72
2024/01/12 13:22:04;;;;;;;7.50;2.58;;;;;;;;;;5013256;28;20045;-72
2024/01/12 13:24:30;;;;;;;5.88;3.33;;;;;;;;;;5032815;28;20049;-72
2024/01/12 14:14:42;;;;;;;5.20;2.25;;;6.70;99.90;;;;;;5130074;27;20501;-63
2024/01/12 14:17:08;;;;;;;3.58;1.90;;;;;;;;;;5136517;27;20046;-64
2024/01/12 14:19:34;;;;;;;5.40;1.60;;;;;;;;;;5134243;27;20123;-64
2024/01/12 14:22:00;;;;;;;4.22;2.58;;;;;;;;;;5135432;27;20487;-63
2024/01/12 14:24:26;;;;;;;6.65;2.38;;;;;;;;;;5131423;27;20495;-64
2024/01/12 14:26:52;;;;;;;4.88;2.15;;;;;;;;;;5138562;27;20038;-64
2024/01/12 14:29:20;;;;;;;5.82;2.17;;;;;;;;;;5141958;27;20065;-64
2024/01/12 14:31:46;;;;;;;4.45;1.67;;;;;;;;;;5140467;27;20031;-64
2024/01/12 14:34:12;;;;;;;4.50;2.20;;;;;;;;;;5132983;27;20341;-64
2024/01/12 14:36:39;;;;;;;4.72;1.73;;;;;;;;;;5137360;27;20049;-63
2024/01/12 14:39:06;;;;;;;4.95;1.42;;;;;;;;;;5134629;27;20403;-63
2024/01/12 14:41:33;;;;;;;4.13;1.60;;;;;;;;;;5137074;27;20066;-63
2024/01/12 14:43:59;;;;;;;2.90;1.70;;;;;;;;;;5139281;27;20163;-63
2024/01/12 14:46:25;;;;;;;2.95;1.50;;;;;;;;;;5141046;27;20482;-63
2024/01/12 14:48:51;;;;;;;6.95;1.95;;;;;;;;;;5137557;27;20331;-63
2024/01/12 14:51:17;;;;;;;3.05;2.17;;;;;;;;;;5140597;27;20122;-63
2024/01/12 14:53:44;;;;;;;4.63;2.03;;;;;;;;;;5135262;27;20138;-63
2024/01/12 14:56:13;;;;;;;4.57;1.60;;;;;;;;;;5139698;27;20042;-63
2024/01/12 14:58:42;;;;;;;5.05;1.77;;;;;;;;;;5137880;27;20082;-63
2024/01/12 15:01:09;;;;;;;4.50;1.83;;;;;;;;;;5137955;27;20047;-63
2024/01/12 15:03:36;;;;;;;7.05;2.88;;;;;;;;;;5130250;27;20664;-66
2024/01/12 15:06:02;;;;;;;6.35;2.28;;;;;;;;;;5141203;27;20118;-63
2024/01/12 15:08:29;;;;;;;7.03;2.08;;;;;;;;;;5132331;27;20489;-63
2024/01/12 15:10:56;;;;;;;3.72;1.50;;;;;;;;;;5137009;27;20300;-63
2024/01/12 15:13:22;;;;;;;5.00;1.88;;;;;;;;;;5134508;27;20059;-63
2024/01/12 15:15:48;;;;;;;3.70;1.70;;;;;;;;;;5117663;27;20039;-64
2024/01/12 15:18:14;;;;;;;4.60;1.60;;;;;;;;;;5119470;27;20043;-63
2024/01/12 15:20:41;;;;;;;5.60;1.77;;;;;;;;;;5129264;27;20035;-63
2024/01/12 15:23:09;;;;;;;7.68;1.75;;;;;;;;;;5122115;27;20046;-63
2024/01/12 15:25:35;;;;;;;6.20;1.58;;;6.30;99.90;;;;;;5091321;27;20553;-62